sensor_id;sensor_type;location;lat;lon;timestamp;P1;P2;P0
62981;PMS5003;49075;53.988;27.678;2024-03-07T00:00:03;35;34.2;26
62981;PMS5003;49075;53.988;27.678;2024-03-07T00:04:31;34.4;31.8;24.4
62981;PMS5003;49075;53.988;27.678;2024-03-07T00:19:25;35.6;34.6;27.8
62981;PMS5003;49075;53.988;27.678;2024-03-07T00:24:25;35.4;34.8;28
62981;PMS5003;49075;53.988;27.678;2024-03-07T00:29:25;28.8;28.4;22.8
62981;PMS5003;49075;53.988;27.678;2024-03-07T00:34:59;34.6;34.2;27.4
62981;PMS5003;49075;53.988;27.678;2024-03-07T00:39:43;35.4;34;26.6
62981;PMS5003;49075;53.988;27.678;2024-03-07T00:44:33;37.8;36.8;27.8
62981;PMS5003;49075;53.988;27.678;2024-03-07T00:49:37;32.2;32.2;25.2
62981;PMS5003;49075;53.988;27.678;2024-03-07T00:54:53;34.4;34.2;27.6
62981;PMS5003;49075;53.988;27.678;2024-03-07T00:59:33;38;36.6;27.8
62981;PMS5003;49075;53.988;27.678;2024-03-07T01:04:35;37.3;35.8;27.8
62981;PMS5003;49075;53.988;27.678;2024-03-07T01:09:35;35.8;34.8;26.8
62981;PMS5003;49075;53.988;27.678;2024-03-07T01:14:35;32.3;32.3;26.8
62981;PMS5003;49075;53.988;27.678;2024-03-07T01:19:35;31;30.4;23.2
62981;PMS5003;49075;53.988;27.678;2024-03-07T01:24:31;36.4;35.4;27
62981;PMS5003;49075;53.988;27.678;2024-03-07T01:29:31;33;33;26.8
62981;PMS5003;49075;53.988;27.678;2024-03-07T01:34:25;34.5;33;26.3
62981;PMS5003;49075;53.988;27.678;2024-03-07T01:39:31;34.4;33.2;26.8
62981;PMS5003;49075;53.988;27.678;2024-03-07T01:44:25;38.6;37.8;28.6
62981;PMS5003;49075;53.988;27.678;2024-03-07T01:49:43;42.7;41.3;30.7
62981;PMS5003;49075;53.988;27.678;2024-03-07T01:54:37;40.8;38.8;29.4
62981;PMS5003;49075;53.988;27.678;2024-03-07T01:59:37;33;32.3;26.3
62981;PMS5003;49075;53.988;27.678;2024-03-07T02:04:43;44.3;41;30.8
62981;PMS5003;49075;53.988;27.678;2024-03-07T02:09:25;40.3;37;28
62981;PMS5003;49075;53.988;27.678;2024-03-07T02:14:43;30.2;29.2;24
62981;PMS5003;49075;53.988;27.678;2024-03-07T02:19:25;36.2;35.6;27.4
62981;PMS5003;49075;53.988;27.678;2024-03-07T02:24:49;40.2;38;29.8
62981;PMS5003;49075;53.988;27.678;2024-03-07T02:29:43;34.2;32.4;25.6
62981;PMS5003;49075;53.988;27.678;2024-03-07T02:45:01;41;38;30
62981;PMS5003;49075;53.988;27.678;2024-03-07T03:04:35;36;35.5;27
62981;PMS5003;49075;53.988;27.678;2024-03-07T03:35:07;37;36.3;28.7
62981;PMS5003;49075;53.988;27.678;2024-03-07T03:39:25;37;36.3;28.7
62981;PMS5003;49075;53.988;27.678;2024-03-07T03:45:03;42.4;40.6;30.8
62981;PMS5003;49075;53.988;27.678;2024-03-07T03:54:43;36.5;36.3;27.5
62981;PMS5003;49075;53.988;27.678;2024-03-07T03:59:25;40;38.3;29
62981;PMS5003;49075;53.988;27.678;2024-03-07T04:04:25;37.8;37.2;28.6
62981;PMS5003;49075;53.988;27.678;2024-03-07T04:09:25;38;37.5;28.5
62981;PMS5003;49075;53.988;27.678;2024-03-07T04:14:25;44;43;28
62981;PMS5003;49075;53.988;27.678;2024-03-07T04:19:35;42.8;40.4;29.6
62981;PMS5003;49075;53.988;27.678;2024-03-07T04:24:35;38;37.8;28.4
62981;PMS5003;49075;53.988;27.678;2024-03-07T04:34:43;38.3;37.3;27.5
62981;PMS5003;49075;53.988;27.678;2024-03-07T04:39:25;38.2;37.4;28.6
62981;PMS5003;49075;53.988;27.678;2024-03-07T04:45:15;52;46;32
62981;PMS5003;49075;53.988;27.678;2024-03-07T04:49:39;52;46;32
62981;PMS5003;49075;53.988;27.678;2024-03-07T05:09:37;61;53;38
62981;PMS5003;49075;53.988;27.678;2024-03-07T05:14:43;48.3;43.5;31.5
62981;PMS5003;49075;53.988;27.678;2024-03-07T05:19:37;45.8;42.4;31.2
62981;PMS5003;49075;53.988;27.678;2024-03-07T05:29:33;46;43;30
62981;PMS5003;49075;53.988;27.678;2024-03-07T05:34:49;54.3;47;34
62981;PMS5003;49075;53.988;27.678;2024-03-07T05:39:43;45.6;41.4;29.8
62981;PMS5003;49075;53.988;27.678;2024-03-07T05:44:43;56.3;49;33.7
62981;PMS5003;49075;53.988;27.678;2024-03-07T05:49:43;48.8;44.2;31.4
62981;PMS5003;49075;53.988;27.678;2024-03-07T05:54:39;45.8;41.4;29.8
62981;PMS5003;49075;53.988;27.678;2024-03-07T05:59:47;60.8;51.4;34.8
62981;PMS5003;49075;53.988;27.678;2024-03-07T06:04:25;63.4;53;35.8
62981;PMS5003;49075;53.988;27.678;2024-03-07T06:09:35;59.3;49.5;36
62981;PMS5003;49075;53.988;27.678;2024-03-07T06:14:35;50.6;44;30.4
62981;PMS5003;49075;53.988;27.678;2024-03-07T06:19:45;48;41;30
62981;PMS5003;49075;53.988;27.678;2024-03-07T06:24:25;37.6;34.8;25.4
62981;PMS5003;49075;53.988;27.678;2024-03-07T06:29:57;44;38.8;28
62981;PMS5003;49075;53.988;27.678;2024-03-07T06:34:25;43.6;37.6;26.2
62981;PMS5003;49075;53.988;27.678;2024-03-07T06:39:33;47.4;40.2;28.8
62981;PMS5003;49075;53.988;27.678;2024-03-07T06:44:47;46;39.2;28.6
62981;PMS5003;49075;53.988;27.678;2024-03-07T06:49:37;37.6;34;24
62981;PMS5003;49075;53.988;27.678;2024-03-07T06:54:43;46.6;39.8;27.8
62981;PMS5003;49075;53.988;27.678;2024-03-07T06:59:25;43.8;37.6;26.6
62981;PMS5003;49075;53.988;27.678;2024-03-07T07:04:25;40.2;35.6;25.8
62981;PMS5003;49075;53.988;27.678;2024-03-07T07:09:25;44.3;37.8;27
62981;PMS5003;49075;53.988;27.678;2024-03-07T07:14:37;39.4;35.6;25.8
62981;PMS5003;49075;53.988;27.678;2024-03-07T07:19:43;35.6;32.2;23.4
62981;PMS5003;49075;53.988;27.678;2024-03-07T07:29:41;40.2;35.2;25.6
62981;PMS5003;49075;53.988;27.678;2024-03-07T07:39:53;43.6;37.2;26.4
62981;PMS5003;49075;53.988;27.678;2024-03-07T07:44:33;43.6;37.6;26.8
62981;PMS5003;49075;53.988;27.678;2024-03-07T07:50:06;37.8;33.6;24.4
62981;PMS5003;49075;53.988;27.678;2024-03-07T07:54:33;37.8;33.6;24.4
62981;PMS5003;49075;53.988;27.678;2024-03-07T07:59:25;32.4;30;22.2
62981;PMS5003;49075;53.988;27.678;2024-03-07T08:29:57;31.6;30;22.4
62981;PMS5003;49075;53.988;27.678;2024-03-07T08:34:25;34;31.6;22.8
62981;PMS5003;49075;53.988;27.678;2024-03-07T08:39:37;31.6;29.4;22
62981;PMS5003;49075;53.988;27.678;2024-03-07T08:44:25;31.6;30.4;22.2
62981;PMS5003;49075;53.988;27.678;2024-03-07T08:49:25;28.6;27.4;21.6
62981;PMS5003;49075;53.988;27.678;2024-03-07T08:54:25;34.2;31;23.2
62981;PMS5003;49075;53.988;27.678;2024-03-07T08:59:25;32.2;30.4;22.6
62981;PMS5003;49075;53.988;27.678;2024-03-07T09:04:25;35.4;32.2;23.6
62981;PMS5003;49075;53.988;27.678;2024-03-07T09:09:25;33;30;22
62981;PMS5003;49075;53.988;27.678;2024-03-07T09:14:25;31.8;30;22.8
62981;PMS5003;49075;53.988;27.678;2024-03-07T09:19:47;30.6;29;21.4
62981;PMS5003;49075;53.988;27.678;2024-03-07T09:24:43;33.6;31;23
62981;PMS5003;49075;53.988;27.678;2024-03-07T09:29:25;33.4;30.8;23.2
62981;PMS5003;49075;53.988;27.678;2024-03-07T09:34:25;25.4;24.2;18.2
62981;PMS5003;49075;53.988;27.678;2024-03-07T09:39:25;30.6;29.2;22
62981;PMS5003;49075;53.988;27.678;2024-03-07T09:44:57;33.2;30.8;23.2
62981;PMS5003;49075;53.988;27.678;2024-03-07T09:49:43;28.4;27;21.2
62981;PMS5003;49075;53.988;27.678;2024-03-07T09:54:33;22;21;17.2
62981;PMS5003;49075;53.988;27.678;2024-03-07T09:59:25;29.3;28;21
62981;PMS5003;49075;53.988;27.678;2024-03-07T10:04:37;27.2;26.4;21
62981;PMS5003;49075;53.988;27.678;2024-03-07T10:09:55;30;28;21.2
62981;PMS5003;49075;53.988;27.678;2024-03-07T10:14:25;34.2;31.6;24
62981;PMS5003;49075;53.988;27.678;2024-03-07T10:19:31;32;30;22.6
62981;PMS5003;49075;53.988;27.678;2024-03-07T10:24:49;28.6;26.8;20.2
62981;PMS5003;49075;53.988;27.678;2024-03-07T10:29:53;22.6;22.6;18.2
62981;PMS5003;49075;53.988;27.678;2024-03-07T10:34:33;22.5;22.5;18.5
62981;PMS5003;49075;53.988;27.678;2024-03-07T10:39:51;24;24;20
62981;PMS5003;49075;53.988;27.678;2024-03-07T10:44:33;22.8;22.6;18.6
62981;PMS5003;49075;53.988;27.678;2024-03-07T10:49:54;26.2;25.8;21.2
62981;PMS5003;49075;53.988;27.678;2024-03-07T10:54:58;27.4;27;20.6
62981;PMS5003;49075;53.988;27.678;2024-03-07T11:04:47;27.8;27.6;20.8
62981;PMS5003;49075;53.988;27.678;2024-03-07T11:10:05;24;23;18.5
62981;PMS5003;49075;53.988;27.678;2024-03-07T11:15:09;29;29;22
62981;PMS5003;49075;53.988;27.678;2024-03-07T11:19:33;29;29;22
62981;PMS5003;49075;53.988;27.678;2024-03-07T11:25:03;34.3;32;24.3
62981;PMS5003;49075;53.988;27.678;2024-03-07T11:29:41;30.8;29.6;22
62981;PMS5003;49075;53.988;27.678;2024-03-07T11:34:25;30.2;28.6;22.4
62981;PMS5003;49075;53.988;27.678;2024-03-07T11:39:55;31.2;30;23.2
62981;PMS5003;49075;53.988;27.678;2024-03-07T11:44:33;25.8;24.8;20
62981;PMS5003;49075;53.988;27.678;2024-03-07T11:49:37;24.4;24.2;20.2
62981;PMS5003;49075;53.988;27.678;2024-03-07T11:54:55;31;29.2;21.4
62981;PMS5003;49075;53.988;27.678;2024-03-07T11:59:25;26.2;25.6;20.8
62981;PMS5003;49075;53.988;27.678;2024-03-07T12:04:25;30.6;28.2;21.2
62981;PMS5003;49075;53.988;27.678;2024-03-07T12:09:57;24.8;23.6;19.6
62981;PMS5003;49075;53.988;27.678;2024-03-07T12:14:25;26.6;26.4;20.2
62981;PMS5003;49075;53.988;27.678;2024-03-07T12:19:51;25.2;24;18.8
62981;PMS5003;49075;53.988;27.678;2024-03-07T12:25:03;25.8;25.4;18.8
62981;PMS5003;49075;53.988;27.678;2024-03-07T12:29:33;24.4;24;19
62981;PMS5003;49075;53.988;27.678;2024-03-07T12:34:25;29.6;28.6;21.2
62981;PMS5003;49075;53.988;27.678;2024-03-07T12:39:35;26.4;26;20.8
62981;PMS5003;49075;53.988;27.678;2024-03-07T12:44:38;25.5;25.3;18.8
62981;PMS5003;49075;53.988;27.678;2024-03-07T12:49:25;30.4;29.6;23.4
62981;PMS5003;49075;53.988;27.678;2024-03-07T12:54:45;30.4;29;23.4
62981;PMS5003;49075;53.988;27.678;2024-03-07T12:59:25;18.2;18.2;16
62981;PMS5003;49075;53.988;27.678;2024-03-07T13:04:25;25.4;24.8;20.2
62981;PMS5003;49075;53.988;27.678;2024-03-07T13:09:25;24;23.8;19.2
62981;PMS5003;49075;53.988;27.678;2024-03-07T13:14:25;25.4;25;21.2
62981;PMS5003;49075;53.988;27.678;2024-03-07T13:19:45;26.8;26;20.4
62981;PMS5003;49075;53.988;27.678;2024-03-07T13:24:47;26.8;26.2;21.2
62981;PMS5003;49075;53.988;27.678;2024-03-07T13:29:25;22.6;22.4;20.2
62981;PMS5003;49075;53.988;27.678;2024-03-07T13:34:45;24.8;24.4;20
62981;PMS5003;49075;53.988;27.678;2024-03-07T13:39:43;24.8;23.8;20.8
62981;PMS5003;49075;53.988;27.678;2024-03-07T13:44:25;23;22.8;19
62981;PMS5003;49075;53.988;27.678;2024-03-07T13:49:25;28.3;28;22.8
62981;PMS5003;49075;53.988;27.678;2024-03-07T13:54:25;22.2;21.6;18
62981;PMS5003;49075;53.988;27.678;2024-03-07T13:59:50;30.2;29.2;22.4
62981;PMS5003;49075;53.988;27.678;2024-03-07T14:04:45;28;27.8;22.2
62981;PMS5003;49075;53.988;27.678;2024-03-07T14:09:41;29.2;29;23.6
62981;PMS5003;49075;53.988;27.678;2024-03-07T14:14:45;27.8;27.6;22.6
62981;PMS5003;49075;53.988;27.678;2024-03-07T14:25:03;25.6;25.2;21
62981;PMS5003;49075;53.988;27.678;2024-03-07T14:29:26;26;25.3;19.8
62981;PMS5003;49075;53.988;27.678;2024-03-07T14:34:45;27;26;21.8
62981;PMS5003;49075;53.988;27.678;2024-03-07T14:39:46;27.3;27;20.3
62981;PMS5003;49075;53.988;27.678;2024-03-07T14:44:25;24;24;20
62981;PMS5003;49075;53.988;27.678;2024-03-07T14:49:35;27;26.5;21
62981;PMS5003;49075;53.988;27.678;2024-03-07T14:54:47;28;27.8;22.8
62981;PMS5003;49075;53.988;27.678;2024-03-07T14:59:25;29.5;28.3;22.5
62981;PMS5003;49075;53.988;27.678;2024-03-07T15:04:37;27.6;26.4;20.6
62981;PMS5003;49075;53.988;27.678;2024-03-07T15:09:57;24.4;23.2;19.2
62981;PMS5003;49075;53.988;27.678;2024-03-07T15:14:25;28.8;28.6;22
62981;PMS5003;49075;53.988;27.678;2024-03-07T15:19:25;29.6;28.6;22.6
62981;PMS5003;49075;53.988;27.678;2024-03-07T15:25:05;28;27.8;23
62981;PMS5003;49075;53.988;27.678;2024-03-07T15:29:51;28;27.8;23
62981;PMS5003;49075;53.988;27.678;2024-03-07T15:34:25;26.5;26;20
62981;PMS5003;49075;53.988;27.678;2024-03-07T15:39:27;31;29.8;23.4
62981;PMS5003;49075;53.988;27.678;2024-03-07T15:44:33;28.2;27;21
62981;PMS5003;49075;53.988;27.678;2024-03-07T15:49:43;25.6;25.6;21.6
62981;PMS5003;49075;53.988;27.678;2024-03-07T15:54:33;31.2;30;23.4
62981;PMS5003;49075;53.988;27.678;2024-03-07T15:59:35;29.6;29.2;22.8
62981;PMS5003;49075;53.988;27.678;2024-03-07T16:04:25;31;30;24.6
62981;PMS5003;49075;53.988;27.678;2024-03-07T16:09:33;30.4;29;22.8
62981;PMS5003;49075;53.988;27.678;2024-03-07T16:14:45;33.8;32;24.8
62981;PMS5003;49075;53.988;27.678;2024-03-07T16:19:33;32.4;32;24.2
62981;PMS5003;49075;53.988;27.678;2024-03-07T16:24:25;29.8;29.8;23.2
62981;PMS5003;49075;53.988;27.678;2024-03-07T16:29:37;28;27.5;21.5
62981;PMS5003;49075;53.988;27.678;2024-03-07T16:34:35;34.8;33.2;24.8
62981;PMS5003;49075;53.988;27.678;2024-03-07T16:39:55;32.8;31.2;23.4
62981;PMS5003;49075;53.988;27.678;2024-03-07T16:44:34;28.6;28.2;22.2
62981;PMS5003;49075;53.988;27.678;2024-03-07T16:49:45;34;32;24.8
62981;PMS5003;49075;53.988;27.678;2024-03-07T16:54:47;27.8;27.6;22.8
62981;PMS5003;49075;53.988;27.678;2024-03-07T16:59:55;36.2;34;26.2
62981;PMS5003;49075;53.988;27.678;2024-03-07T17:04:53;34.6;32.8;25.2
62981;PMS5003;49075;53.988;27.678;2024-03-07T17:10:05;30;30;24
